Carcroft, United Kingdom
Current Conditions -  °F | °C
As of 7:50 AM on Saturday 20 Dec 2014 (Local Time) from EGCN Reporting Station
Scattered Clouds Scattered Clouds  
Wind Chill: 38°   Ceiling: Unl
Heat Index: 46°   Visibility: 6mi
Dew Point: 37°   Wind: 26mph
Humidity: 71%   Direction: 280°W
Pressure: 30.09"   Gusts: 40mph
Location:  53.58°N, 1.18°W
Report Text: EGCN 200750Z 28023G35KT 9999 FEW031 SCT042 08/03 Q1019
Loading
Personal Weather Stations






























Interactive Weather Map New forecast layout! Learn more

10-Day Weather Forecast

Advertisements
Track Severe Weather on mobile